Lebanon, Maine
Current Conditions -  °F | °C
As of 7:35 PM on Thursday 27 Nov 2014 (Local Time) from KSFM Reporting Station
Overcast Overcast  
Wind Chill: 25°   Ceiling: 3100
Heat Index: 30°   Visibility: 10mi
Dew Point: 25°   Wind: 5mph
Humidity: 80%   Direction: 20°NNE
Pressure: 30"   Gusts: NA
Location:  43.39°N, 70.85°W
Report Text: KSFM 280035Z AUTO 02004KT 10SM OVC031 M01/M04 A3000 RMK AO1 P0001
Loading
Personal Weather Stations






























Interactive Weather Map New forecast layout! Learn more

10-Day Weather Forecast

Advertisements
Track Severe Weather on mobile